EDLI 230835Z 24009KT 9999 ///035 18/12 Q1015

Wind aktuell: 210° mit 8 kt

Wind 10 Minuten extrem:

170° bis 270° mit 5 kt bis 13 kt

Seitenwindkomponente: 7.3 kt

Wolkengrenze 1: 3000

Wolkengrenze 2: keine

Wolkengrenze 3: keine

Sichtweite: 20.000 Meter

Vorheriges Wetter:

Aktuelles Wetter:

Temperatur: 18.0 °C

Taupunkt: 12.4 °C

Luftfeuchtigkeit: 69%

QNH: 1015 hPa 

QFE: 998 hPa